createdAt,value
2023-05-02T12:08:21.239Z,16.65
2023-05-02T12:09:22.101Z,16.34
2023-05-02T12:10:23.042Z,16.00
2023-05-02T12:11:23.946Z,15.45
2023-05-02T12:12:24.802Z,15.08
2023-05-02T12:13:25.707Z,14.77
2023-05-02T12:14:27.444Z,14.33
2023-05-02T12:15:27.396Z,14.26
2023-05-02T12:16:28.276Z,13.91
2023-05-02T12:17:29.233Z,13.46
2023-05-02T12:18:30.088Z,13.39
2023-05-02T12:19:30.969Z,13.06
2023-05-02T12:20:32.148Z,13.02
2023-05-02T12:21:32.548Z,12.84
2023-05-02T12:22:33.418Z,12.79
2023-05-02T12:23:35.366Z,12.66
2023-05-02T12:24:35.040Z,12.73
2023-05-02T12:25:35.920Z,12.69
2023-05-02T12:26:36.810Z,12.69
2023-05-02T12:27:37.688Z,12.71
2023-05-02T12:28:38.637Z,12.61
2023-05-02T12:29:39.264Z,12.66
2023-05-02T12:30:40.133Z,12.79
2023-05-02T12:31:41.112Z,12.73
2023-05-02T12:32:41.990Z,12.87
2023-05-02T12:33:43.021Z,12.90
2023-05-02T12:34:43.874Z,12.95
2023-05-02T12:35:44.308Z,13.04
2023-05-02T12:36:45.247Z,13.09
2023-05-02T12:37:47.320Z,13.23
2023-05-02T12:38:46.306Z,13.42
2023-05-02T12:39:47.181Z,13.53
2023-05-02T12:40:48.113Z,13.06
2023-05-02T12:41:48.992Z,12.77
2023-05-02T12:42:49.879Z,12.79
2023-05-02T12:43:51.297Z,12.51
2023-05-02T12:44:51.688Z,12.36
2023-05-02T12:45:52.638Z,12.28
2023-05-02T12:46:53.593Z,12.17
2023-05-02T12:47:54.562Z,12.15
2023-05-02T12:48:55.506Z,12.32
2023-05-02T12:49:56.402Z,12.44
2023-05-02T12:50:57.616Z,12.50
2023-05-02T12:51:58.006Z,12.51
2023-05-02T12:52:58.932Z,12.61
2023-05-02T12:53:59.931Z,12.65
2023-05-02T12:55:00.358Z,12.62
2023-05-02T12:56:01.290Z,12.32
2023-05-02T12:57:02.191Z,11.82
2023-05-02T12:58:03.082Z,11.88
2023-05-02T12:59:04.428Z,11.76
2023-05-02T13:00:04.834Z,11.80
2023-05-02T13:01:05.754Z,11.69
2023-05-02T13:02:06.680Z,11.69
2023-05-02T13:03:07.672Z,11.48
2023-05-02T13:04:08.170Z,11.69
2023-05-02T13:05:09.052Z,11.62
2023-05-02T13:06:10.027Z,11.80
2023-05-02T13:07:10.911Z,12.04
2023-05-02T13:08:11.865Z,12.33
2023-05-02T13:09:12.913Z,12.58
2023-05-02T13:10:13.246Z,12.61
2023-05-02T13:11:14.137Z,12.28
2023-05-02T13:12:15.034Z,12.29
2023-05-02T13:13:15.959Z,12.22
2023-05-02T13:14:17.309Z,12.15
2023-05-02T13:15:17.703Z,12.28
2023-05-02T13:16:18.783Z,12.25
2023-05-02T13:17:19.296Z,11.99
2023-05-02T13:18:19.720Z,12.07
2023-05-02T13:19:20.614Z,12.26
2023-05-02T13:20:21.502Z,12.46
2023-05-02T13:21:22.451Z,12.53
2023-05-02T13:22:23.311Z,12.51
2023-05-02T13:23:24.345Z,12.53
2023-05-02T13:24:25.283Z,12.53
2023-05-02T13:25:26.138Z,12.55
2023-05-02T13:26:27.054Z,12.55
2023-05-02T13:27:27.921Z,12.53
2023-05-02T13:28:28.798Z,12.61
2023-05-02T13:29:30.062Z,12.80
2023-05-02T13:30:30.418Z,12.80
2023-05-02T13:31:31.335Z,12.80
2023-05-02T13:32:32.433Z,12.80
2023-05-02T13:33:32.834Z,12.91
2023-05-02T13:34:33.763Z,13.14
2023-05-02T13:37:23.562Z,13.42
2023-05-02T13:38:24.447Z,13.55
2023-05-02T13:39:25.334Z,13.55
2023-05-02T13:40:26.452Z,13.60
2023-05-02T13:41:26.999Z,13.47
2023-05-02T13:42:27.943Z,13.26
2023-05-02T13:43:29.148Z,12.95
2023-05-02T13:44:29.524Z,12.87
2023-05-02T13:45:30.412Z,12.83
2023-05-02T13:46:31.329Z,12.51
2023-05-02T13:47:32.291Z,12.51
2023-05-02T13:48:33.166Z,12.30
2023-05-02T13:49:34.406Z,11.87
2023-05-02T13:50:34.779Z,11.95
2023-05-02T13:51:35.719Z,12.13
2023-05-02T13:52:36.598Z,12.33
2023-05-02T13:53:37.483Z,12.35
2023-05-02T13:54:38.357Z,12.11
2023-05-02T13:55:39.274Z,12.21
2023-05-02T13:56:40.159Z,12.38
2023-05-02T13:57:41.045Z,12.66
2023-05-02T13:58:41.953Z,12.81
2023-05-02T13:59:42.830Z,13.08
2023-05-02T14:00:43.782Z,13.23
2023-05-02T14:01:44.790Z,13.09
2023-05-02T14:02:45.288Z,12.81
2023-05-02T14:04:07.737Z,12.80
2023-05-02T14:04:47.136Z,12.84
2023-05-02T14:05:48.022Z,12.84
2023-05-02T14:06:48.922Z,12.80
2023-05-02T14:07:49.841Z,12.93
2023-05-02T14:08:50.792Z,13.02
2023-05-02T14:09:51.658Z,13.06
2023-05-02T14:10:52.564Z,13.14
2023-05-02T14:11:53.425Z,13.04
2023-05-02T14:12:54.293Z,12.84
2023-05-02T14:13:55.168Z,12.68
2023-05-02T14:14:56.038Z,12.58
2023-05-02T14:15:56.964Z,12.33
2023-05-02T14:16:57.830Z,12.41
2023-05-02T14:17:58.818Z,12.47
2023-05-02T14:18:59.494Z,12.58
2023-05-02T14:20:00.051Z,12.71
2023-05-02T14:21:00.648Z,12.72
2023-05-02T14:22:01.530Z,12.68
2023-05-02T14:23:02.406Z,12.65
2023-05-02T14:24:03.314Z,12.80
2023-05-02T14:25:04.173Z,12.73
2023-05-02T14:26:05.086Z,13.04
2023-05-02T14:27:05.973Z,13.47
2023-05-02T14:28:28.100Z,13.80
2023-05-02T14:29:07.440Z,13.82
2023-05-02T14:30:08.332Z,13.65
2023-05-02T14:31:09.446Z,13.29
2023-05-02T14:32:09.882Z,13.40
2023-05-02T14:33:10.749Z,13.32
2023-05-02T14:34:11.609Z,13.36
2023-05-02T14:35:12.521Z,13.47
2023-05-02T14:36:13.390Z,13.65
2023-05-02T14:37:14.282Z,13.85
2023-05-02T14:38:15.181Z,13.96
2023-05-02T14:39:16.025Z,13.96
2023-05-02T14:40:16.925Z,13.85
2023-05-02T14:41:17.829Z,13.79
2023-05-02T14:42:18.673Z,13.73
2023-05-02T14:43:19.939Z,13.51
2023-05-02T14:44:20.332Z,13.24
2023-05-02T14:45:21.193Z,13.19
2023-05-02T14:46:22.198Z,13.08
2023-05-02T14:47:23.064Z,13.30
2023-05-02T14:48:23.943Z,13.58
2023-05-02T14:49:24.822Z,13.72
2023-05-02T14:50:25.690Z,14.04
2023-05-02T14:51:26.588Z,14.44
2023-05-02T14:52:27.499Z,14.38
2023-05-02T14:53:28.352Z,14.08
2023-05-02T14:54:29.235Z,14.03
2023-05-02T14:55:30.139Z,13.94
2023-05-02T14:56:31.056Z,13.85
2023-05-02T14:57:31.958Z,13.79
2023-05-02T14:58:32.815Z,13.75
2023-05-02T14:59:33.670Z,13.85
2023-05-02T15:00:34.562Z,13.86
2023-05-02T15:01:35.495Z,13.78
2023-05-02T15:02:36.485Z,13.88
2023-05-02T15:03:49.161Z,14.03
2023-05-02T15:04:38.794Z,14.16
2023-05-02T15:05:38.253Z,14.21
2023-05-02T15:06:39.234Z,14.08
2023-05-02T15:07:40.080Z,13.97
2023-05-02T15:08:40.960Z,13.71
2023-05-02T15:09:41.850Z,13.57
2023-05-02T15:10:42.715Z,13.47
2023-05-02T15:11:43.634Z,13.47
2023-05-02T15:12:44.794Z,13.46
2023-05-02T15:13:45.167Z,13.46
2023-05-02T15:14:46.044Z,13.45
2023-05-02T15:15:46.966Z,13.16
2023-05-02T15:16:47.964Z,13.08
2023-05-02T15:17:48.888Z,13.11
2023-05-02T15:18:49.786Z,13.24
2023-05-02T15:19:50.663Z,13.05
2023-05-02T15:20:51.626Z,13.43
2023-05-02T15:21:52.499Z,13.01
2023-05-02T15:22:53.444Z,12.72
2023-05-02T15:23:54.332Z,12.72
2023-05-02T15:24:55.229Z,12.77
2023-05-02T15:25:56.081Z,12.81
2023-05-02T15:26:57.007Z,12.93
2023-05-02T15:27:57.909Z,12.99
2023-05-02T15:28:58.799Z,12.87
2023-05-02T15:29:59.961Z,12.65
2023-05-02T15:31:00.454Z,12.54
2023-05-02T15:32:01.392Z,12.58
2023-05-02T15:33:02.295Z,12.50
2023-05-02T15:34:03.444Z,12.33
2023-05-02T15:35:03.820Z,12.41
2023-05-02T15:36:04.689Z,12.50
2023-05-02T15:37:05.594Z,12.62
2023-05-02T15:38:06.465Z,12.43
2023-05-02T15:39:07.389Z,12.48
2023-05-02T15:40:08.341Z,12.41
2023-05-02T15:41:09.231Z,12.25
2023-05-02T15:42:10.122Z,12.14
2023-05-02T15:43:11.233Z,12.10
2023-05-02T15:44:11.626Z,12.26
2023-05-02T15:45:12.516Z,12.32
2023-05-02T15:46:13.462Z,12.36
2023-05-02T15:47:14.370Z,12.47
2023-05-02T15:48:15.201Z,12.53
2023-05-02T15:49:18.437Z,12.66
2023-05-02T15:50:16.778Z,12.68
2023-05-02T15:51:17.658Z,12.68
2023-05-02T15:52:18.447Z,12.72
2023-05-02T15:53:19.332Z,12.77
2023-05-02T15:54:20.185Z,12.71
2023-05-02T15:55:21.079Z,12.72
2023-05-02T15:56:21.932Z,12.77
2023-05-02T15:57:22.850Z,12.76
2023-05-02T15:58:24.007Z,12.51
2023-05-02T15:59:24.356Z,12.54
2023-05-02T16:00:25.257Z,12.61
2023-05-02T16:01:26.157Z,12.61
2023-05-02T16:02:27.043Z,12.59
2023-05-02T16:03:28.076Z,12.54
2023-05-02T16:04:28.479Z,12.35
2023-05-02T16:05:29.632Z,12.15
2023-05-02T16:06:30.042Z,12.21
2023-05-02T16:07:30.956Z,12.23
2023-05-02T16:08:31.865Z,12.22
2023-05-02T16:09:32.735Z,12.18
2023-05-02T16:10:33.588Z,12.18
2023-05-02T16:11:34.459Z,12.21
2023-05-02T16:12:35.396Z,12.44
2023-05-02T16:13:36.258Z,12.68
2023-05-02T16:14:37.152Z,12.84
2023-05-02T16:15:38.058Z,13.08
2023-05-02T16:16:39.049Z,13.24
2023-05-02T16:17:39.517Z,13.43
2023-05-02T16:18:40.384Z,13.54
2023-05-02T16:19:41.268Z,13.11
2023-05-02T16:20:42.214Z,12.98
2023-05-02T16:21:43.044Z,12.76
2023-05-02T16:22:43.943Z,12.63
2023-05-02T16:23:44.831Z,12.53
2023-05-02T16:24:45.715Z,12.35
2023-05-02T16:25:46.587Z,12.35
2023-05-02T16:26:47.471Z,12.28
2023-05-02T16:27:49.667Z,12.14
2023-05-02T16:28:49.024Z,11.96
2023-05-02T16:29:49.900Z,11.97
2023-05-02T16:30:50.776Z,11.93
2023-05-02T16:31:51.732Z,11.74
2023-05-02T16:32:52.317Z,11.55
2023-05-02T16:33:53.151Z,11.55
2023-05-02T16:34:54.031Z,11.62
2023-05-02T16:35:54.901Z,11.58
2023-05-02T16:36:55.823Z,11.64
2023-05-02T16:37:56.690Z,11.85
2023-05-02T16:38:57.596Z,12.15
2023-05-02T16:39:58.454Z,12.38
2023-05-02T16:40:59.326Z,12.47
2023-05-02T16:42:00.200Z,12.47
2023-05-02T16:43:01.427Z,12.50
2023-05-02T16:44:01.786Z,12.47
2023-05-02T16:45:02.667Z,12.41
2023-05-02T16:46:03.603Z,11.99
2023-05-02T16:47:04.511Z,11.64
2023-05-02T16:48:05.500Z,11.55
2023-05-02T16:49:06.895Z,11.46
2023-05-02T16:50:07.262Z,11.49
2023-05-02T16:51:08.116Z,11.31
2023-05-02T16:52:09.037Z,11.37
2023-05-02T16:53:09.935Z,11.41
2023-05-02T16:54:10.816Z,11.36
2023-05-02T16:55:11.722Z,11.23
2023-05-02T16:56:12.819Z,11.31
2023-05-02T16:57:13.159Z,11.37
2023-05-02T16:58:15.276Z,11.46
2023-05-02T16:59:14.631Z,11.28
2023-05-02T17:00:15.508Z,11.33
2023-05-02T17:01:16.442Z,11.37
2023-05-02T17:02:17.423Z,11.51
2023-05-02T17:03:18.392Z,11.73
2023-05-02T17:04:19.639Z,11.87
2023-05-02T17:05:19.955Z,11.96
2023-05-02T17:06:20.898Z,12.17
2023-05-02T17:07:21.748Z,12.14
2023-05-02T17:08:22.658Z,12.00
2023-05-02T17:09:23.575Z,11.91
2023-05-02T17:10:24.449Z,11.70
2023-05-02T17:11:25.342Z,11.70
2023-05-02T17:12:26.219Z,11.48
2023-05-02T17:13:27.441Z,11.19
2023-05-02T17:14:27.810Z,11.11
2023-05-02T17:15:28.690Z,11.12
2023-05-02T17:16:29.623Z,11.19
2023-05-02T17:17:30.546Z,11.22
2023-05-02T17:18:31.503Z,11.28
2023-05-02T17:19:32.685Z,11.28
2023-05-02T17:20:33.089Z,11.34
2023-05-02T17:21:33.927Z,11.19
2023-05-02T17:22:34.813Z,11.08
2023-05-02T17:23:35.688Z,10.98
2023-05-02T17:24:36.581Z,11.00
2023-05-02T17:25:37.424Z,10.87
2023-05-02T17:26:38.323Z,10.85
2023-05-02T17:27:41.074Z,10.91
2023-05-02T17:28:40.234Z,10.90
2023-05-02T17:29:41.083Z,10.78
2023-05-02T17:30:41.988Z,11.30
2023-05-02T17:31:42.948Z,11.89
2023-05-02T17:32:43.846Z,12.05
2023-05-02T17:33:44.759Z,12.21
2023-05-02T17:34:45.561Z,12.43
2023-05-02T17:35:45.917Z,12.61
2023-05-02T17:36:46.792Z,12.53
2023-05-02T17:37:47.683Z,12.18
2023-05-02T17:38:48.588Z,12.05
2023-05-02T17:39:49.464Z,11.61
2023-05-02T17:40:50.347Z,11.59
2023-05-02T17:41:51.214Z,11.61
2023-05-02T17:42:52.376Z,11.59
2023-05-02T17:43:52.798Z,11.54
2023-05-02T17:44:53.666Z,11.38
2023-05-02T17:45:54.562Z,11.34
2023-05-02T17:46:55.428Z,11.04
2023-05-02T17:47:56.377Z,10.72
2023-05-02T17:48:57.322Z,10.78
2023-05-02T17:49:58.161Z,10.85
2023-05-02T17:50:59.055Z,10.94
2023-05-02T17:51:59.926Z,10.97
2023-05-02T17:53:00.830Z,10.98
2023-05-02T17:54:01.689Z,11.04
2023-05-02T17:55:02.576Z,11.08
2023-05-02T17:56:03.439Z,11.13
2023-05-02T17:57:04.325Z,11.13
2023-05-02T17:58:05.473Z,11.13
2023-05-02T17:59:05.898Z,11.23
2023-05-02T18:00:06.864Z,11.30
2023-05-02T18:01:07.788Z,11.37
2023-05-02T18:02:10.319Z,11.55
2023-05-02T18:03:09.371Z,11.64
2023-05-02T18:04:10.577Z,11.73
2023-05-02T18:05:10.957Z,11.74
2023-05-02T18:06:11.859Z,11.58
2023-05-02T18:07:12.749Z,11.56
2023-05-02T18:08:13.729Z,11.49
2023-05-02T18:09:14.612Z,11.49
2023-05-02T18:10:15.507Z,11.54
2023-05-02T18:11:16.401Z,11.56
2023-05-02T18:12:17.247Z,11.55
2023-05-02T18:13:18.425Z,11.43
2023-05-02T18:14:18.854Z,11.30
2023-05-02T18:15:19.697Z,11.19
2023-05-02T18:16:20.627Z,11.05
2023-05-02T18:17:21.548Z,10.93
2023-05-02T18:18:22.470Z,10.90
2023-05-02T18:19:23.733Z,10.94
2023-05-02T18:20:24.084Z,10.86
2023-05-02T18:21:24.962Z,10.86
2023-05-02T18:22:25.820Z,10.87
2023-05-02T18:23:26.715Z,10.91
2023-05-02T18:24:27.645Z,10.91
2023-05-02T18:25:28.512Z,10.83
2023-05-02T18:26:29.359Z,10.75
2023-05-02T18:27:30.316Z,10.64
2023-05-02T18:28:31.449Z,10.68
2023-05-02T18:29:31.884Z,10.79
2023-05-02T18:30:32.753Z,10.76
2023-05-02T18:31:33.642Z,10.87
2023-05-02T18:32:34.574Z,10.95
2023-05-02T18:33:35.433Z,11.05
2023-05-02T18:34:39.090Z,11.15
2023-05-02T18:35:37.109Z,11.18
2023-05-02T18:36:38.007Z,11.04
2023-05-02T18:37:38.870Z,10.93
2023-05-02T18:38:39.770Z,10.86
2023-05-02T18:39:40.691Z,10.72
2023-05-02T18:40:41.558Z,10.55
2023-05-02T18:41:42.472Z,10.54
2023-05-02T18:42:43.596Z,10.58
2023-05-02T18:43:44.011Z,10.58
2023-05-02T18:44:44.937Z,10.52
2023-05-02T18:45:45.793Z,10.55
2023-05-02T18:46:46.752Z,10.45
2023-05-02T18:47:47.752Z,10.38
2023-05-02T18:48:48.910Z,10.26
2023-05-02T18:49:49.293Z,10.34
2023-05-02T18:50:50.177Z,10.34
2023-05-02T18:51:51.055Z,10.42
2023-05-02T18:52:51.930Z,10.43
2023-05-02T18:53:52.799Z,10.42
2023-05-02T18:54:53.732Z,10.42
2023-05-02T18:55:54.593Z,10.42
2023-05-02T18:56:55.467Z,10.43
2023-05-02T18:57:56.343Z,10.41
2023-05-02T18:58:57.221Z,10.28
2023-05-02T18:59:58.137Z,10.09
2023-05-02T19:00:59.061Z,10.18
2023-05-02T19:02:00.179Z,10.34
2023-05-02T19:03:00.674Z,10.41
2023-05-02T19:04:01.875Z,10.54
2023-05-02T19:05:02.444Z,10.52
2023-05-02T19:06:03.076Z,10.42
2023-05-02T19:07:03.965Z,10.46
2023-05-02T19:08:04.841Z,10.30
2023-05-02T19:09:05.716Z,10.08
2023-05-02T19:10:06.608Z,10.05
2023-05-02T19:11:07.488Z,10.03
2023-05-02T19:12:08.379Z,10.03
2023-05-02T19:13:09.570Z,9.98
2023-05-02T19:14:09.946Z,10.01
2023-05-02T19:15:10.860Z,10.03
2023-05-02T19:16:11.840Z,10.06
2023-05-02T19:17:12.671Z,9.93
2023-05-02T19:18:13.567Z,9.94
2023-05-02T19:19:14.797Z,9.96
2023-05-02T19:20:15.204Z,9.94
2023-05-02T19:21:16.104Z,9.73
2023-05-02T19:22:17.000Z,9.72
2023-05-02T19:23:20.116Z,9.72
2023-05-02T19:24:18.580Z,9.77
2023-05-02T19:25:19.484Z,9.73
2023-05-02T19:26:20.377Z,9.62
2023-05-02T19:27:21.257Z,9.60
2023-05-02T19:28:22.121Z,9.54
2023-05-02T19:29:23.008Z,9.59
2023-05-02T19:30:23.931Z,9.70
2023-05-02T19:31:24.815Z,9.80
2023-05-02T19:32:25.707Z,10.14
2023-05-02T19:33:27.842Z,10.35
2023-05-02T19:34:27.250Z,10.39
2023-05-02T19:35:28.143Z,10.55
2023-05-02T19:36:29.094Z,10.21
2023-05-02T19:37:29.966Z,10.12
2023-05-02T19:38:30.834Z,10.14
2023-05-02T19:39:31.726Z,9.93
2023-05-02T19:40:32.648Z,9.90
2023-05-02T19:41:33.534Z,9.90
2023-05-02T19:42:34.661Z,9.93
2023-05-02T19:43:35.062Z,9.88
2023-05-02T19:44:36.747Z,9.81
2023-05-02T19:45:36.735Z,9.78
2023-05-02T19:46:37.649Z,9.85
2023-05-02T19:47:38.597Z,9.85
2023-05-02T19:48:39.763Z,9.85
2023-05-02T19:49:40.135Z,9.84
2023-05-02T19:50:41.066Z,9.83
2023-05-02T19:51:41.936Z,9.88
2023-05-02T19:52:42.832Z,9.90
2023-05-02T19:53:43.737Z,9.87
2023-05-02T19:54:44.610Z,9.81
2023-05-02T19:55:45.776Z,9.81
2023-05-02T19:56:46.144Z,9.75
2023-05-02T19:57:47.340Z,9.59
2023-05-02T19:58:47.676Z,9.62
2023-05-02T19:59:48.529Z,9.70
2023-05-02T20:00:49.467Z,9.78
2023-05-02T20:01:50.354Z,9.90
2023-05-02T20:02:51.726Z,9.90
2023-05-02T20:03:52.579Z,10.01
2023-05-02T20:04:52.983Z,10.08
2023-05-02T20:05:53.878Z,10.17
2023-05-02T20:06:54.854Z,10.20
2023-05-02T20:07:55.737Z,10.20
2023-05-02T20:08:56.608Z,10.08
2023-05-02T20:09:57.491Z,10.08
2023-05-02T20:10:58.392Z,10.01
2023-05-02T20:11:59.264Z,9.81
2023-05-02T20:13:00.138Z,9.73
2023-05-02T20:14:00.990Z,9.73
2023-05-02T20:15:01.868Z,9.60
2023-05-02T20:16:03.540Z,9.59
2023-05-02T20:17:03.540Z,9.59
2023-05-02T20:18:04.070Z,9.55
2023-05-02T20:19:05.187Z,9.60
2023-05-02T20:20:05.596Z,9.50
2023-05-02T20:21:06.472Z,9.41
2023-05-02T20:22:07.368Z,9.27
2023-05-02T20:23:08.240Z,9.19
2023-05-02T20:24:09.117Z,9.18
2023-05-02T20:25:09.983Z,9.29
2023-05-02T20:26:10.914Z,9.42
2023-05-02T20:27:11.781Z,9.41
2023-05-02T20:28:13.960Z,9.48
2023-05-02T20:29:13.343Z,9.44
2023-05-02T20:30:14.218Z,9.36
2023-05-02T20:31:15.145Z,9.09
2023-05-02T20:32:16.089Z,8.95
2023-05-02T20:33:17.807Z,8.96
2023-05-02T20:34:17.662Z,8.95
2023-05-02T20:35:18.781Z,9.01
2023-05-02T20:36:19.178Z,8.88
2023-05-02T20:37:20.082Z,8.80
2023-05-02T20:38:20.922Z,8.71
2023-05-02T20:39:21.900Z,8.70
2023-05-02T20:40:22.356Z,8.68
2023-05-02T20:41:23.223Z,8.63
2023-05-02T20:42:24.090Z,8.56
2023-05-02T20:43:25.233Z,8.56
2023-05-02T20:44:25.613Z,8.55
2023-05-02T20:45:26.476Z,8.49
2023-05-02T20:46:27.506Z,8.42
2023-05-02T20:47:27.904Z,8.46
2023-05-02T20:48:28.779Z,8.47
2023-05-02T20:49:29.636Z,8.39
2023-05-02T20:50:30.805Z,8.38
2023-05-02T20:51:31.217Z,8.39
2023-05-02T20:52:32.090Z,8.42
2023-05-02T20:53:32.961Z,8.49
2023-05-02T20:54:33.866Z,8.55
2023-05-02T20:55:34.735Z,8.56
2023-05-02T20:56:35.609Z,8.60
2023-05-02T20:57:37.816Z,8.63
2023-05-02T20:58:37.185Z,8.50
2023-05-02T20:59:38.053Z,8.44
2023-05-02T21:00:38.913Z,8.35
2023-05-02T21:01:39.904Z,8.19
2023-05-02T21:02:40.789Z,8.10
2023-05-02T21:03:41.670Z,8.13
2023-05-02T21:04:42.529Z,8.16
2023-05-02T21:05:43.394Z,8.19
2023-05-02T21:06:44.429Z,8.20
2023-05-02T21:07:44.984Z,8.16
2023-05-02T21:08:45.407Z,8.16
2023-05-02T21:09:46.287Z,8.10
2023-05-02T21:10:47.178Z,8.01
2023-05-02T21:11:48.053Z,7.88
2023-05-02T21:12:49.202Z,7.81
2023-05-02T21:13:49.582Z,7.91
2023-05-02T21:14:50.491Z,7.88
2023-05-02T21:15:51.416Z,7.88
2023-05-02T21:16:52.321Z,7.86
2023-05-02T21:17:53.203Z,7.87
2023-05-02T21:18:54.044Z,7.87
2023-05-02T21:19:54.904Z,7.74
2023-05-02T21:20:55.835Z,7.80
2023-05-02T21:21:56.693Z,7.73
2023-05-02T21:22:57.575Z,7.68
2023-05-02T21:23:58.457Z,7.66
2023-05-02T21:24:59.339Z,7.55
2023-05-02T21:26:00.194Z,7.43
2023-05-02T21:27:01.082Z,7.40
2023-05-02T21:28:02.226Z,7.33
2023-05-02T21:29:02.652Z,7.29
2023-05-02T21:30:03.762Z,7.39
2023-05-02T21:31:04.429Z,7.57
2023-05-02T21:32:05.463Z,7.77
2023-05-02T21:33:05.952Z,7.78
2023-05-02T21:34:08.124Z,7.81
2023-05-02T21:35:07.505Z,7.86
2023-05-02T21:36:08.407Z,8.19
2023-05-02T21:37:09.300Z,8.29
2023-05-02T21:38:10.179Z,8.12
2023-05-02T21:39:11.031Z,8.09
2023-05-02T21:40:11.912Z,8.12
2023-05-02T21:41:12.795Z,7.99
2023-05-02T21:42:13.729Z,7.80
2023-05-02T21:43:14.862Z,7.76
2023-05-02T21:44:15.267Z,7.77
2023-05-02T21:45:16.122Z,7.71
2023-05-02T21:46:17.056Z,7.64
2023-05-02T21:47:17.947Z,7.62
2023-05-02T21:48:18.807Z,7.54
2023-05-02T21:49:19.984Z,7.50
2023-05-02T21:50:20.366Z,7.49
2023-05-02T21:51:21.245Z,7.47
2023-05-02T21:52:22.137Z,7.49
2023-05-02T21:53:23.001Z,7.40
2023-05-02T21:54:23.905Z,7.26
2023-05-02T21:55:24.765Z,7.25
2023-05-02T21:56:25.621Z,7.21
2023-05-02T21:57:26.547Z,7.15
2023-05-02T21:58:28.722Z,7.16
2023-05-02T21:59:28.069Z,7.21
2023-05-02T22:00:28.962Z,7.19
2023-05-02T22:01:29.930Z,7.19
2023-05-02T22:02:30.589Z,7.19
2023-05-02T22:03:31.124Z,7.19
2023-05-02T22:04:32.299Z,7.24
2023-05-02T22:05:32.639Z,7.28
2023-05-02T22:06:33.623Z,7.40
2023-05-02T22:07:34.043Z,7.44
2023-05-02T22:08:34.910Z,7.42
2023-05-02T22:09:35.771Z,7.44
2023-05-02T22:10:36.644Z,7.40
2023-05-02T22:11:37.532Z,7.44
2023-05-02T22:12:38.398Z,7.40
2023-05-02T22:13:39.277Z,7.26
2023-05-02T22:14:45.385Z,7.24
2023-05-02T22:15:41.925Z,7.15
2023-05-02T22:16:41.916Z,7.16
2023-05-02T22:17:42.419Z,7.18
2023-05-02T22:18:43.084Z,7.15
2023-05-02T22:19:43.462Z,7.07
2023-05-02T22:20:44.354Z,7.06
2023-05-02T22:21:45.229Z,7.01
2023-05-02T22:22:46.133Z,7.00
2023-05-02T22:23:47.006Z,6.93
2023-05-02T22:24:47.903Z,6.83
2023-05-02T22:25:48.766Z,6.81
2023-05-02T22:26:49.675Z,6.86
2023-05-02T22:27:52.914Z,7.00
2023-05-02T22:28:51.286Z,7.01
2023-05-02T22:29:52.163Z,7.06
2023-05-02T22:30:53.062Z,6.93
2023-05-02T22:31:54.038Z,6.93
2023-05-02T22:32:54.941Z,6.85
2023-05-02T22:33:55.828Z,6.83
2023-05-02T22:34:57.972Z,6.86
2023-05-02T22:35:57.392Z,6.91
2023-05-02T22:36:58.216Z,6.92
2023-05-02T22:37:59.148Z,6.89
2023-05-02T22:38:59.995Z,6.91
2023-05-02T22:40:01.083Z,6.92
2023-05-02T22:41:01.652Z,6.96
2023-05-02T22:42:02.504Z,6.96
2023-05-02T22:43:03.763Z,6.88
2023-05-02T22:44:04.102Z,6.88
2023-05-02T22:45:04.977Z,6.86
2023-05-02T22:46:05.871Z,6.82
2023-05-02T22:47:06.767Z,6.74
2023-05-02T22:48:07.691Z,6.75
2023-05-02T22:49:08.566Z,6.81
2023-05-02T22:50:09.801Z,6.97
2023-05-02T22:51:10.124Z,6.99
2023-05-02T22:52:11.001Z,6.99
2023-05-02T22:53:11.918Z,6.88
2023-05-02T22:54:12.794Z,6.74
2023-05-02T22:55:13.692Z,6.73
2023-05-02T22:56:14.524Z,6.67
2023-05-02T22:57:15.405Z,6.65
2023-05-02T22:58:16.609Z,6.65
2023-05-02T22:59:17.004Z,6.57
2023-05-02T23:00:17.867Z,6.43
2023-05-02T23:01:18.826Z,6.37
2023-05-02T23:02:19.743Z,6.34
2023-05-02T23:03:20.669Z,6.38
2023-05-02T23:04:22.807Z,6.43
2023-05-02T23:05:22.208Z,6.40
2023-05-02T23:06:23.073Z,6.28
2023-05-02T23:07:23.968Z,6.21
2023-05-02T23:08:24.871Z,6.27
2023-05-02T23:09:25.766Z,6.27
2023-05-02T23:10:26.651Z,6.28
2023-05-02T23:11:27.510Z,6.28
2023-05-02T23:12:28.393Z,6.31
2023-05-02T23:13:29.601Z,6.28
2023-05-02T23:14:29.978Z,6.27
2023-05-02T23:15:30.854Z,6.34
2023-05-02T23:16:31.851Z,6.38
2023-05-02T23:17:32.312Z,6.43
2023-05-02T23:18:33.184Z,6.50
2023-05-02T23:19:34.040Z,6.47
2023-05-02T23:20:34.963Z,6.45
2023-05-02T23:21:35.831Z,6.38
2023-05-02T23:22:36.705Z,6.32
2023-05-02T23:23:37.584Z,6.37
2023-05-02T23:24:38.495Z,6.27
2023-05-02T23:25:39.355Z,6.27
2023-05-02T23:26:40.231Z,6.25
2023-05-02T23:27:42.375Z,6.13
2023-05-02T23:28:41.781Z,6.11
2023-05-02T23:29:42.670Z,6.11
2023-05-02T23:30:43.544Z,6.06
2023-05-02T23:31:44.517Z,6.05
2023-05-02T23:32:45.410Z,5.97
2023-05-02T23:33:47.447Z,5.94
2023-05-02T23:34:46.795Z,5.95
2023-05-02T23:35:47.727Z,5.90
2023-05-02T23:36:48.562Z,5.84
2023-05-02T23:37:49.446Z,5.80
2023-05-02T23:38:50.862Z,5.82
2023-05-02T23:39:51.195Z,5.85
2023-05-02T23:40:52.074Z,5.87
2023-05-02T23:41:52.967Z,5.84
2023-05-02T23:42:54.125Z,5.98
2023-05-02T23:43:54.542Z,6.13
2023-05-02T23:44:55.417Z,6.15
2023-05-02T23:45:56.269Z,6.05
2023-05-02T23:46:57.188Z,6.02
2023-05-02T23:47:58.111Z,5.98
2023-05-02T23:49:00.315Z,5.95
2023-05-02T23:50:00.015Z,5.80
2023-05-02T23:51:00.248Z,5.70
2023-05-02T23:52:01.149Z,5.69
2023-05-02T23:53:02.012Z,5.70
2023-05-02T23:54:02.981Z,5.69
2023-05-02T23:55:03.830Z,5.70
2023-05-02T23:56:04.696Z,5.61
2023-05-02T23:57:05.572Z,5.58
2023-05-02T23:58:08.797Z,5.58
2023-05-02T23:59:07.189Z,5.59
